67

www.moto.it

MXGP. Herlings e Jonass vincono Gara-1 a Lommel

67
...

Dopo aver registrato il miglior tempo nelle qualifiche, il pilota KTM Jeffrey Herlings trionfa in Gara-1 e tiene alle sue spalle Cairoli e Coldenhoff. Van Horebeek termina in quarta posizione e anticipa Nagl e Desalle. Solo 9° Gajser mentre Lupino si classifica 17esimo. 

Per la categoria MX2, Jonass vince la prima manche davanti a Prado Garcia e Seewer. Quarta piazza per Paturel seguito da Lieber e Watson. 

CLASSIFICHE

MXGP - Race 1 - Classification

Pos Nr Rider Nat. Fed. Bike Time laps Diff. First Diff. Prev. Bestlaptime in lap Speed
1 84 Herlings, Jeffrey NED KNMV KTM 35:34.225 16 0:00.000 0:00.000 2:03.301 2 54.8
2 222 Cairoli, Antonio ITA FMI KTM 36:01.567 16 0:27.342 0:27.342 2:03.828 4 54.6
3 259 Coldenhoff, Glenn NED KNMV KTM 36:13.521 16 0:39.296 0:11.954 2:03.786 2 54.6
4 89 Van Horebeek, Jeremy BEL FMB Yamaha 36:27.805 16 0:53.580 0:14.284 2:07.445 3 53.1
5 12 Nagl, Maximilian GER DMSB Husqvarna 36:30.281 16 0:56.056 0:02.476 2:07.345 2 53.1
6 25 Desalle, Clement BEL FMB Kawasaki 36:34.804 16 1:00.579 0:04.523 2:08.423 3 52.7
7 21 Paulin, Gautier FRA MCM Husqvarna 36:36.290 16 1:02.065 0:01.486 2:08.153 7 52.8
8 461 Febvre, Romain FRA FFM Yamaha 36:40.446 16 1:06.221 0:04.156 2:06.776 2 53.3
9 243 Gajser, Tim SLO AMZS Honda 36:43.094 16 1:08.869 0:02.648 2:08.715 1 52.5
10 4 Tonus, Arnaud SUI FMS Yamaha 36:57.164 16 1:22.939 0:14.070 2:08.386 4 52.7
11 27 Jasikonis, Arminas LTU LMSF Suzuki 37:06.408 16 1:32.183 0:09.244 2:07.569 1 53
12 777 Bobryshev, Evgeny RUS MFR Honda 37:11.586 16 1:37.361 0:05.178 2:09.132 1 52.4
13 22 Strijbos, Kevin BEL FMB Suzuki 37:15.653 16 1:41.428 0:04.067 2:10.360 7 51.9
14 99 Anstie, Max GBR ACU Husqvarna 37:24.628 16 1:50.403 0:08.975 2:08.708 1 52.5
15 7 Leok, Tanel EST EMF Husqvarna 37:38.343 16 2:04.118 0:13.715 2:09.958 1 52
16 151 Kullas, Harri EST EMF Husqvarna 37:49.162 16 2:14.937 0:10.819 2:11.977 3 51.2
17 77 Lupino, Alessandro ITA FMI Honda 36:05.027 15 1 lap 1 lap 2:12.689 3 51
18 999 Goncalves, Rui POR FMP Husqvarna 36:07.223 15 1 lap 0:02.196 2:13.368 1 50.7
19 494 Van der Mierden, Sven NED KNMV Husqvarna 36:16.589 15 1 lap 0:09.366 2:15.681 4 49.8
20 664 Bengtsson, Filip SWE SVEMO KTM 36:17.882 15 1 lap 0:01.293 2:12.922 3 50.9

MX2 - Grand Prix Race 1 - Classification

Pos Nr Rider Nat. Fed. Bike Time laps Diff. First Diff. Prev. Bestlaptime in lap Speed
1 41 Jonass, Pauls LAT LAMSF KTM 36:03.639 16 0:00.000 0:00.000 2:04.840 3 54.2
2 61 Prado Garcia, Jorge ESP RFME KTM 36:08.602 16 0:04.963 0:04.963 2:04.197 2 54.4
3 91 Seewer, Jeremy SUI FMS Suzuki 36:31.621 16 0:27.982 0:23.019 2:04.723 1 54.2
4 6 Paturel, Benoit FRA FFM Yamaha 36:36.611 16 0:32.972 0:04.990 2:07.030 4 53.2
5 33 Lieber, Julien BEL FMB KTM 36:36.649 16 0:33.010 0:00.038 2:06.943 3 53.3
6 919 Watson, Ben GBR ACU KTM 36:45.958 16 0:42.319 0:09.309 2:07.307 3 53.1
7 19 Olsen, Thomas Kjer DEN DMU Husqvarna 36:47.548 16 0:43.909 0:01.590 2:07.447 3 53.1
8 426 Mewse, Conrad GBR ACU Husqvarna 36:50.902 16 0:47.263 0:03.354 2:07.252 3 53.1
9 64 Covington, Thomas USA MUL Husqvarna 36:50.963 16 0:47.324 0:00.061 2:07.709 2 52.9
10 172 Van doninck, Brent BEL FMB Yamaha 37:19.205 16 1:15.566 0:28.242 2:08.805 3 52.5
11 96 Lawrence, Hunter AUS MA Suzuki 37:23.426 16 1:19.787 0:04.221 2:09.512 4 52.2
12 189 Bogers, Brian NED KNMV KTM 37:27.276 16 1:23.637 0:03.850 2:08.464 3 52.6
13 161 Östlund, Alvin SWE SVEMO Yamaha 37:37.882 16 1:34.243 0:10.606 2:10.881 3 51.7
14 10 Vlaanderen, Calvin NED KNMV KTM 37:56.796 16 1:53.157 0:18.914 2:10.245 4 51.9
15 57 Sanayei, Darian USA AMA Kawasaki 38:01.874 16 1:58.235 0:05.078 2:11.662 3 51.4
16 29 Jacobi, Henry GER DMSB Husqvarna 38:08.514 16 2:04.875 0:06.640 2:12.174 4 51.2
17 81 Hsu, Brian GER MAMS Husqvarna 38:08.762 16 2:05.123 0:00.248 2:09.297 2 52.3
18 747 Cervellin, Michele ITA FMI Honda 38:20.914 16 2:17.275 0:12.152 2:10.019 2 52
19 66 Larranaga Olano, Iker ESP RFME Husqvarna 36:04.593 15 1 lap 1 lap 2:12.470 4 51
20 98 Vaessen, Bas NED KNMV Suzuki 36:06.319 15 1 lap 0:01.726 2:09.815 1 52.1